Jc Love — WDC3346 — position and weather

sailwx.info

Track history (hours):
 
Tides and Currents Weather Stations Pressure Air Temp Water Temp Dewpoint Dewpoint Depression Visibility Wind Speed Wind Dir Waves Ship Positions

Jc Love

Owner: WEEKS MARINE, INC, CRANFORD, NJ. More information available from US FCC via Universal Licensing System and Coast Guard Vessel Documentation Center.

Last reported at 2017-Nov-15 19:43 UTC. Time now 2017-Nov-19 12:36 UTC.
Position N 29°43' W 095°01'.

Length 20 m; draft 2.5 m.

Type: Tug. MMSI: 367006320.

Date/timePositionNaut miles runAvg speedWind from/ knotsBaromVisibWave heightAir tempDewpointWater temp
2017-Nov-15 19:43N 29°43' W 095°01'2 7.1
2017-Nov-15 19:30N 29°42' W 094°60'3 6.9
2017-Nov-15 19:01N 29°39' W 094°58'2 4.3
2017-Nov-15 18:30N 29°37' W 094°59'1 2.9
2017-Nov-15 18:00N 29°37' W 095°01'0 0.0
2017-Nov-15 17:31N 29°37' W 095°01'1 1.5
2017-Nov-15 17:00N 29°37' W 094°60'2 4.4
2017-Nov-15 16:28N 29°38' W 094°58'0 0.4
2017-Nov-15 16:00N 29°38' W 094°57'0 0.0
2017-Nov-15 15:30N 29°38' W 094°57'0 0.0
2017-Nov-15 15:01N 29°38' W 094°57'0 0.0
2017-Nov-15 14:30N 29°38' W 094°57'0 0.0
2017-Nov-15 14:01N 29°38' W 094°57'0 0.0
2017-Nov-15 13:30N 29°38' W 094°57'0 0.0
2017-Nov-15 13:00N 29°38' W 094°57'0 0.0
2017-Nov-15 12:30N 29°38' W 094°57'0 0.0
2017-Nov-15 12:00N 29°38' W 094°57'0 0.0
2017-Nov-15 11:30N 29°38' W 094°57'0 0.0
2017-Nov-15 11:00N 29°38' W 094°57'0 0.0
2017-Nov-15 10:30N 29°38' W 094°57'0 0.0
2017-Nov-15 10:00N 29°38' W 094°57'0 0.0
2017-Nov-15 09:30N 29°38' W 094°57'0 0.0
2017-Nov-15 09:00N 29°38' W 094°57'0 0.0
2017-Nov-15 08:30N 29°38' W 094°57'0 0.0
2017-Nov-15 08:00N 29°38' W 094°57'0 0.0
2017-Nov-15 07:30N 29°38' W 094°57'0 0.0
2017-Nov-15 07:00N 29°38' W 094°57'0 0.0
2017-Nov-15 06:30N 29°38' W 094°57'0 0.0
2017-Nov-15 06:00N 29°38' W 094°57'0 0.0
2017-Nov-15 05:30N 29°38' W 094°57'0 0.0
2017-Nov-15 05:00N 29°38' W 094°57'0 0.0
2017-Nov-15 04:30N 29°38' W 094°57'0 0.0
2017-Nov-15 04:00N 29°38' W 094°57'0 0.0
2017-Nov-15 03:30N 29°38' W 094°57'0 0.0
2017-Nov-15 03:00N 29°38' W 094°57'0 0.0
2017-Nov-15 02:30N 29°38' W 094°57'0 0.0
2017-Nov-15 02:00N 29°38' W 094°57'0 0.0
2017-Nov-15 01:30N 29°38' W 094°57'0 0.0
2017-Nov-15 01:00N 29°38' W 094°57'0 0.0
2017-Nov-15 00:30N 29°38' W 094°57'0 0.7
2017-Nov-15 00:00N 29°38' W 094°57'1 1.1
2017-Nov-14 23:29N 29°37' W 094°57'0 0.5
2017-Nov-14 23:00N 29°38' W 094°57'0 0.3
2017-Nov-14 22:24N 29°38' W 094°57'0 0.6
2017-Nov-14 22:00N 29°38' W 094°57'0 0.1
2017-Nov-14 21:29N 29°38' W 094°57'0 0.3
2017-Nov-14 20:59N 29°38' W 094°57'0 0.3
2017-Nov-14 20:30N 29°38' W 094°57'4 7.1
2017-Nov-14 20:00N 29°41' W 094°59'1 2.4
2017-Nov-14 19:30N 29°42' W 094°60'0 0.4
2017-Nov-14 19:00N 29°42' W 094°60'0 0.1
2017-Nov-14 18:30N 29°42' W 094°60'0 0.1
2017-Nov-14 18:00N 29°42' W 094°60'0 0.2
2017-Nov-14 17:27N 29°42' W 094°60'0 0.1
2017-Nov-14 16:59N 29°42' W 094°60'0 0.4
2017-Nov-14 16:29N 29°42' W 094°60'0 0.4
2017-Nov-14 15:57N 29°42' W 094°60'0 0.3
2017-Nov-14 15:30N 29°42' W 094°60'0 0.8
2017-Nov-14 15:00N 29°42' W 094°59'2 2.8
2017-Nov-14 14:26N 29°40' W 094°59'1 3.1
2017-Nov-14 13:59N 29°39' W 094°58'2 2.6
2017-Nov-14 13:20N 29°37' W 094°57'0 0.1
2017-Nov-14 12:57N 29°37' W 094°57'0 0.1
2017-Nov-14 12:29N 29°37' W 094°57'0 0.1
2017-Nov-14 11:59N 29°37' W 094°57'0 0.0
2017-Nov-14 11:30N 29°37' W 094°57'0 0.0
2017-Nov-14 11:00N 29°37' W 094°57'0 0.0
2017-Nov-14 10:31N 29°37' W 094°57'0 0.0
2017-Nov-14 10:00N 29°37' W 094°57'0 0.0
2017-Nov-14 09:30N 29°37' W 094°57'0 0.0
2017-Nov-14 09:00N 29°37' W 094°57'0 0.0
2017-Nov-14 08:30N 29°37' W 094°57'0 0.0
2017-Nov-14 08:00N 29°37' W 094°57'0 0.0
2017-Nov-14 07:30N 29°37' W 094°57'0 0.0
2017-Nov-14 07:00N 29°37' W 094°57'0 0.0
2017-Nov-14 04:32N 29°37' W 094°57'0 0.0
2017-Nov-14 04:10N 29°37' W 094°57'0 0.0
2017-Nov-14 04:00N 29°37' W 094°57'0 0.0
2017-Nov-14 03:30N 29°37' W 094°57'0 0.1
2017-Nov-14 03:00N 29°37' W 094°57'3 5.7
2017-Nov-14 02:30N 29°37' W 095°01'0 0.0
2017-Nov-14 02:00N 29°37' W 095°01'0 0.0
2017-Nov-14 01:30N 29°37' W 095°01'0 0.0
2017-Nov-14 01:00N 29°37' W 095°01'2 4.9
2017-Nov-14 00:30N 29°37' W 094°58'1 2.3
2017-Nov-14 00:00N 29°38' W 094°57'0 0.0
2017-Nov-13 23:30N 29°38' W 094°57'2 3.1
2017-Nov-13 23:00N 29°37' W 094°58'2 4.2
2017-Nov-13 22:30N 29°37' W 095°01'0 0.0
2017-Nov-13 22:00N 29°37' W 095°01'  
Track history (hours):
 
Tides and Currents Weather Stations Pressure Air Temp Water Temp Dewpoint Dewpoint Depression Visibility Wind Speed Wind Dir Waves Ship Positions

Jc Love

Owner: WEEKS MARINE, INC, CRANFORD, NJ. More information available from US FCC via Universal Licensing System and Coast Guard Vessel Documentation Center.

Last reported at 2017-Nov-15 19:43 UTC. Time now 2017-Nov-19 12:36 UTC.
Position N 29°43' W 095°01'.

Length 20 m; draft 2.5 m.

Type: Tug. MMSI: 367006320.

Date/timePositionNaut miles runAvg speedWind from/ knotsBaromVisibWave heightAir tempDewpointWater temp
2017-Nov-15 19:43N 29°43' W 095°01'2 7.1
2017-Nov-15 19:30N 29°42' W 094°60'3 6.9
2017-Nov-15 19:01N 29°39' W 094°58'2 4.3
2017-Nov-15 18:30N 29°37' W 094°59'1 2.9
2017-Nov-15 18:00N 29°37' W 095°01'0 0.0
2017-Nov-15 17:31N 29°37' W 095°01'1 1.5
2017-Nov-15 17:00N 29°37' W 094°60'2 4.4
2017-Nov-15 16:28N 29°38' W 094°58'0 0.4
2017-Nov-15 16:00N 29°38' W 094°57'0 0.0
2017-Nov-15 15:30N 29°38' W 094°57'0 0.0
2017-Nov-15 15:01N 29°38' W 094°57'0 0.0
2017-Nov-15 14:30N 29°38' W 094°57'0 0.0
2017-Nov-15 14:01N 29°38' W 094°57'0 0.0
2017-Nov-15 13:30N 29°38' W 094°57'0 0.0
2017-Nov-15 13:00N 29°38' W 094°57'0 0.0
2017-Nov-15 12:30N 29°38' W 094°57'0 0.0
2017-Nov-15 12:00N 29°38' W 094°57'0 0.0
2017-Nov-15 11:30N 29°38' W 094°57'0 0.0
2017-Nov-15 11:00N 29°38' W 094°57'0 0.0
2017-Nov-15 10:30N 29°38' W 094°57'0 0.0
2017-Nov-15 10:00N 29°38' W 094°57'0 0.0
2017-Nov-15 09:30N 29°38' W 094°57'0 0.0
2017-Nov-15 09:00N 29°38' W 094°57'0 0.0
2017-Nov-15 08:30N 29°38' W 094°57'0 0.0
2017-Nov-15 08:00N 29°38' W 094°57'0 0.0
2017-Nov-15 07:30N 29°38' W 094°57'0 0.0
2017-Nov-15 07:00N 29°38' W 094°57'0 0.0
2017-Nov-15 06:30N 29°38' W 094°57'0 0.0
2017-Nov-15 06:00N 29°38' W 094°57'0 0.0
2017-Nov-15 05:30N 29°38' W 094°57'0 0.0
2017-Nov-15 05:00N 29°38' W 094°57'0 0.0
2017-Nov-15 04:30N 29°38' W 094°57'0 0.0
2017-Nov-15 04:00N 29°38' W 094°57'0 0.0
2017-Nov-15 03:30N 29°38' W 094°57'0 0.0
2017-Nov-15 03:00N 29°38' W 094°57'0 0.0
2017-Nov-15 02:30N 29°38' W 094°57'0 0.0
2017-Nov-15 02:00N 29°38' W 094°57'0 0.0
2017-Nov-15 01:30N 29°38' W 094°57'0 0.0
2017-Nov-15 01:00N 29°38' W 094°57'0 0.0
2017-Nov-15 00:30N 29°38' W 094°57'0 0.7
2017-Nov-15 00:00N 29°38' W 094°57'1 1.1
2017-Nov-14 23:29N 29°37' W 094°57'0 0.5
2017-Nov-14 23:00N 29°38' W 094°57'0 0.3
2017-Nov-14 22:24N 29°38' W 094°57'0 0.6
2017-Nov-14 22:00N 29°38' W 094°57'0 0.1
2017-Nov-14 21:29N 29°38' W 094°57'0 0.3
2017-Nov-14 20:59N 29°38' W 094°57'0 0.3
2017-Nov-14 20:30N 29°38' W 094°57'4 7.1
2017-Nov-14 20:00N 29°41' W 094°59'1 2.4
2017-Nov-14 19:30N 29°42' W 094°60'0 0.4
2017-Nov-14 19:00N 29°42' W 094°60'0 0.1
2017-Nov-14 18:30N 29°42' W 094°60'0 0.1
2017-Nov-14 18:00N 29°42' W 094°60'0 0.2
2017-Nov-14 17:27N 29°42' W 094°60'0 0.1
2017-Nov-14 16:59N 29°42' W 094°60'0 0.4
2017-Nov-14 16:29N 29°42' W 094°60'0 0.4
2017-Nov-14 15:57N 29°42' W 094°60'0 0.3
2017-Nov-14 15:30N 29°42' W 094°60'0 0.8
2017-Nov-14 15:00N 29°42' W 094°59'2 2.8
2017-Nov-14 14:26N 29°40' W 094°59'1 3.1
2017-Nov-14 13:59N 29°39' W 094°58'2 2.6
2017-Nov-14 13:20N 29°37' W 094°57'0 0.1
2017-Nov-14 12:57N 29°37' W 094°57'0 0.1
2017-Nov-14 12:29N 29°37' W 094°57'0 0.1
2017-Nov-14 11:59N 29°37' W 094°57'0 0.0
2017-Nov-14 11:30N 29°37' W 094°57'0 0.0
2017-Nov-14 11:00N 29°37' W 094°57'0 0.0
2017-Nov-14 10:31N 29°37' W 094°57'0 0.0
2017-Nov-14 10:00N 29°37' W 094°57'0 0.0
2017-Nov-14 09:30N 29°37' W 094°57'0 0.0
2017-Nov-14 09:00N 29°37' W 094°57'0 0.0
2017-Nov-14 08:30N 29°37' W 094°57'0 0.0
2017-Nov-14 08:00N 29°37' W 094°57'0 0.0
2017-Nov-14 07:30N 29°37' W 094°57'0 0.0
2017-Nov-14 07:00N 29°37' W 094°57'0 0.0
2017-Nov-14 04:32N 29°37' W 094°57'0 0.0
2017-Nov-14 04:10N 29°37' W 094°57'0 0.0
2017-Nov-14 04:00N 29°37' W 094°57'0 0.0
2017-Nov-14 03:30N 29°37' W 094°57'0 0.1
2017-Nov-14 03:00N 29°37' W 094°57'3 5.7
2017-Nov-14 02:30N 29°37' W 095°01'0 0.0
2017-Nov-14 02:00N 29°37' W 095°01'0 0.0
2017-Nov-14 01:30N 29°37' W 095°01'0 0.0
2017-Nov-14 01:00N 29°37' W 095°01'2 4.9
2017-Nov-14 00:30N 29°37' W 094°58'1 2.3
2017-Nov-14 00:00N 29°38' W 094°57'0 0.0
2017-Nov-13 23:30N 29°38' W 094°57'2 3.1
2017-Nov-13 23:00N 29°37' W 094°58'2 4.2
2017-Nov-13 22:30N 29°37' W 095°01'0 0.0
2017-Nov-13 22:00N 29°37' W 095°01'  

Dump ship's entire track history